createdAt,value
2023-02-17T00:01:22.794Z,6.70
2023-02-17T00:03:50.831Z,6.60
2023-02-17T00:06:21.040Z,6.60
2023-02-17T00:08:49.223Z,6.60
2023-02-17T00:11:17.929Z,6.60
2023-02-17T00:13:45.681Z,6.60
2023-02-17T00:16:20.264Z,6.50
2023-02-17T00:18:58.440Z,6.50
2023-02-17T00:21:28.501Z,6.60
2023-02-17T00:23:57.815Z,6.70
2023-02-17T00:26:25.057Z,6.70
2023-02-17T00:28:52.316Z,6.60
2023-02-17T00:31:22.273Z,6.50
2023-02-17T00:33:50.215Z,6.50
2023-02-17T00:36:19.500Z,6.30
2023-02-17T00:38:48.302Z,6.10
2023-02-17T00:41:17.234Z,6.00
2023-02-17T00:43:44.854Z,6.00
2023-02-17T00:46:12.248Z,5.90
2023-02-17T00:48:40.196Z,5.90
2023-02-17T00:51:07.544Z,5.80
2023-02-17T00:53:35.733Z,5.80
2023-02-17T00:56:04.085Z,5.80
2023-02-17T00:58:31.519Z,5.80
2023-02-17T01:00:59.697Z,5.80
2023-02-17T01:03:27.619Z,5.80
2023-02-17T01:05:55.747Z,5.80
2023-02-17T01:08:24.339Z,5.80
2023-02-17T01:10:52.926Z,5.90
2023-02-17T01:13:20.525Z,5.80
2023-02-17T01:15:52.225Z,5.80
2023-02-17T01:18:23.658Z,5.80
2023-02-17T01:20:51.680Z,5.80
2023-02-17T01:23:19.385Z,5.80
2023-02-17T01:25:47.886Z,5.80
2023-02-17T01:28:19.929Z,5.80
2023-02-17T01:30:48.267Z,5.80
2023-02-17T01:33:15.633Z,5.90
2023-02-17T01:35:42.975Z,5.80
2023-02-17T01:38:13.017Z,5.80
2023-02-17T01:40:48.125Z,5.80
2023-02-17T01:43:18.568Z,5.80
2023-02-17T01:46:07.553Z,5.80
2023-02-17T01:48:47.255Z,5.80
2023-02-17T01:51:21.733Z,5.80
2023-02-17T01:53:52.106Z,5.80
2023-02-17T01:56:19.407Z,5.80
2023-02-17T01:59:01.286Z,5.70
2023-02-17T02:01:29.752Z,5.70
2023-02-17T02:04:00.639Z,5.70
2023-02-17T02:06:30.572Z,5.70
2023-02-17T02:09:14.917Z,5.70
2023-02-17T02:11:42.718Z,5.70
2023-02-17T02:14:11.490Z,5.60
2023-02-17T02:16:41.957Z,5.70
2023-02-17T02:19:40.334Z,5.70
2023-02-17T02:23:12.056Z,5.70
2023-02-17T02:25:50.963Z,5.70
2023-02-17T02:28:37.414Z,5.70
2023-02-17T02:31:35.189Z,5.60
2023-02-17T02:34:23.534Z,5.60
2023-02-17T02:36:58.399Z,5.50
2023-02-17T02:42:01.727Z,5.50
2023-02-17T02:44:29.005Z,5.60
2023-02-17T02:47:05.828Z,5.60
2023-02-17T02:49:35.587Z,5.60
2023-02-17T02:52:25.810Z,5.60
2023-02-17T02:55:14.850Z,5.60
2023-02-17T02:58:01.433Z,5.70
2023-02-17T03:00:39.092Z,5.70
2023-02-17T03:03:16.249Z,5.70
2023-02-17T03:06:08.175Z,5.70
2023-02-17T03:08:44.136Z,5.70
2023-02-17T03:11:15.040Z,5.70
2023-02-17T03:13:42.700Z,5.60
2023-02-17T03:16:14.836Z,5.60
2023-02-17T03:18:42.549Z,5.70
2023-02-17T03:21:15.654Z,5.50
2023-02-17T03:23:43.720Z,5.40
2023-02-17T03:26:10.987Z,5.30
2023-02-17T03:28:38.224Z,5.30
2023-02-17T03:31:05.697Z,5.10
2023-02-17T03:33:32.950Z,5.10
2023-02-17T03:36:00.182Z,5.10
2023-02-17T03:38:27.370Z,5.10
2023-02-17T03:40:54.745Z,5.20
2023-02-17T03:43:21.898Z,5.20
2023-02-17T03:45:49.303Z,5.20
2023-02-17T03:48:16.533Z,5.20
2023-02-17T03:50:43.968Z,5.30
2023-02-17T03:53:12.006Z,5.20
2023-02-17T03:55:39.363Z,5.20
2023-02-17T03:58:06.521Z,5.20
2023-02-17T04:00:33.819Z,5.20
2023-02-17T04:03:01.045Z,5.20
2023-02-17T04:05:28.372Z,5.20
2023-02-17T04:07:55.802Z,5.30
2023-02-17T04:10:23.197Z,5.40
2023-02-17T04:12:50.385Z,5.70
2023-02-17T04:15:17.622Z,5.80
2023-02-17T04:17:44.893Z,5.70
2023-02-17T04:20:12.680Z,5.70
2023-02-17T04:22:39.893Z,5.60
2023-02-17T04:25:07.327Z,5.50
2023-02-17T04:27:34.617Z,5.30
2023-02-17T04:30:02.095Z,5.10
2023-02-17T04:32:30.522Z,4.90
2023-02-17T04:34:57.839Z,4.80
2023-02-17T04:37:25.269Z,4.80
2023-02-17T04:39:52.461Z,4.70
2023-02-17T04:42:19.709Z,4.70
2023-02-17T04:44:47.048Z,4.60
2023-02-17T04:47:14.341Z,4.60
2023-02-17T04:49:41.556Z,4.60
2023-02-17T04:52:08.821Z,4.60
2023-02-17T04:54:36.186Z,4.50
2023-02-17T04:57:03.400Z,4.50
2023-02-17T04:59:30.610Z,4.50
2023-02-17T05:01:57.835Z,4.50
2023-02-17T05:04:25.068Z,4.50
2023-02-17T05:06:52.401Z,4.60
2023-02-17T05:09:19.689Z,4.70
2023-02-17T05:11:46.902Z,4.70
2023-02-17T05:14:14.138Z,4.80
2023-02-17T05:16:41.509Z,4.80
2023-02-17T05:19:08.858Z,4.80
2023-02-17T05:21:36.208Z,4.80
2023-02-17T05:24:03.569Z,4.70
2023-02-17T05:26:30.994Z,4.70
2023-02-17T05:28:58.286Z,4.60
2023-02-17T05:31:25.467Z,4.60
2023-02-17T05:33:54.786Z,4.50
2023-02-17T05:36:22.301Z,4.50
2023-02-17T05:38:51.324Z,4.50
2023-02-17T05:41:19.809Z,4.50
2023-02-17T05:43:47.534Z,4.50
2023-02-17T05:46:15.411Z,4.50
2023-02-17T05:48:44.294Z,4.50
2023-02-17T05:51:13.879Z,4.40
2023-02-17T05:53:41.448Z,4.40
2023-02-17T05:56:10.017Z,4.50
2023-02-17T05:58:37.668Z,4.50
2023-02-17T06:01:09.979Z,4.50
2023-02-17T06:03:37.704Z,4.60
2023-02-17T06:06:06.447Z,4.60
2023-02-17T06:08:34.794Z,4.60
2023-02-17T06:11:02.371Z,4.70
2023-02-17T06:13:29.627Z,4.80
2023-02-17T06:15:59.632Z,4.90
2023-02-17T06:18:29.750Z,4.80
2023-02-17T06:20:57.996Z,4.70
2023-02-17T06:23:26.454Z,4.60
2023-02-17T06:25:54.513Z,4.50
2023-02-17T06:28:21.796Z,4.60
2023-02-17T06:30:49.076Z,4.60
2023-02-17T06:33:16.376Z,4.60
2023-02-17T06:35:47.727Z,4.60
2023-02-17T06:38:14.950Z,4.60
2023-02-17T06:40:42.458Z,4.60
2023-02-17T06:43:09.754Z,4.70
2023-02-17T06:45:37.130Z,4.70
2023-02-17T06:48:04.563Z,4.80
2023-02-17T06:50:32.019Z,4.80
2023-02-17T06:52:59.285Z,4.90
2023-02-17T06:55:26.617Z,4.90
2023-02-17T06:57:53.939Z,5.00
2023-02-17T07:00:22.204Z,5.10
2023-02-17T07:02:49.648Z,5.10
2023-02-17T07:05:17.092Z,5.10
2023-02-17T07:07:44.301Z,5.00
2023-02-17T07:10:11.932Z,5.10
2023-02-17T07:12:39.724Z,5.10
2023-02-17T07:15:09.440Z,5.10
2023-02-17T07:17:39.274Z,5.10
2023-02-17T07:20:07.252Z,5.10
2023-02-17T07:22:34.458Z,5.20
2023-02-17T07:25:01.735Z,5.20
2023-02-17T07:27:31.734Z,5.20
2023-02-17T07:29:59.228Z,5.30
2023-02-17T07:32:26.472Z,5.40
2023-02-17T07:34:53.758Z,5.50
2023-02-17T07:37:21.934Z,5.50
2023-02-17T07:39:49.394Z,5.60
2023-02-17T07:42:16.590Z,5.60
2023-02-17T07:44:45.802Z,5.60
2023-02-17T07:47:13.071Z,5.60
2023-02-17T07:49:40.372Z,5.70
2023-02-17T07:52:07.566Z,5.80
2023-02-17T07:54:34.819Z,5.80
2023-02-17T07:57:01.997Z,5.90
2023-02-17T07:59:29.299Z,6.00
2023-02-17T08:01:56.612Z,6.10
2023-02-17T08:04:24.124Z,6.20
2023-02-17T08:06:51.438Z,6.30
2023-02-17T08:09:37.260Z,6.40
2023-02-17T08:12:23.221Z,6.50
2023-02-17T08:14:50.493Z,6.60
2023-02-17T08:17:17.821Z,6.70
2023-02-17T08:19:49.342Z,6.80
2023-02-17T08:22:17.697Z,6.80
2023-02-17T08:24:45.039Z,6.90
2023-02-17T08:27:13.886Z,6.90
2023-02-17T08:29:41.727Z,7.00
2023-02-17T08:32:09.639Z,7.00
2023-02-17T08:34:37.077Z,7.10
2023-02-17T08:37:06.523Z,7.20
2023-02-17T08:39:35.286Z,7.20
2023-02-17T08:42:03.368Z,7.30
2023-02-17T08:44:30.730Z,7.40
2023-02-17T08:46:58.004Z,7.50
2023-02-17T08:49:27.071Z,7.50
2023-02-17T08:51:54.587Z,7.60
2023-02-17T08:54:22.048Z,7.70
2023-02-17T08:56:49.473Z,7.80
2023-02-17T08:59:17.149Z,7.90
2023-02-17T09:01:44.570Z,7.90
2023-02-17T09:04:14.551Z,8.00
2023-02-17T09:06:47.029Z,8.10
2023-02-17T09:09:18.297Z,8.10
2023-02-17T09:11:46.657Z,8.20
2023-02-17T09:14:14.129Z,8.20
2023-02-17T09:16:41.843Z,8.30
2023-02-17T09:19:09.419Z,8.40
2023-02-17T09:21:36.915Z,8.40
2023-02-17T09:24:04.721Z,8.60
2023-02-17T09:26:32.071Z,8.60
2023-02-17T09:29:04.043Z,8.70
2023-02-17T09:31:32.058Z,8.70
2023-02-17T09:33:59.646Z,8.70
2023-02-17T09:36:33.323Z,8.80
2023-02-17T09:39:01.853Z,8.90
2023-02-17T09:41:43.183Z,9.00
2023-02-17T09:44:43.064Z,9.10
2023-02-17T09:47:22.416Z,9.20
2023-02-17T09:50:01.269Z,9.30
2023-02-17T09:52:41.397Z,9.40
2023-02-17T09:55:20.055Z,9.50
2023-02-17T09:57:55.477Z,9.60
2023-02-17T10:00:41.457Z,9.60
2023-02-17T10:03:31.327Z,9.70
2023-02-17T10:06:25.101Z,9.80
2023-02-17T10:09:19.923Z,9.70
2023-02-17T10:12:05.690Z,9.90
2023-02-17T10:14:48.301Z,9.90
2023-02-17T10:17:37.914Z,9.90
2023-02-17T10:20:24.673Z,10.00
2023-02-17T10:22:59.903Z,10.10
2023-02-17T10:25:55.146Z,10.10
2023-02-17T10:28:24.979Z,10.10
2023-02-17T10:31:19.788Z,10.20
2023-02-17T10:34:04.156Z,10.30
2023-02-17T10:36:34.164Z,10.30
2023-02-17T10:39:20.228Z,10.30
2023-02-17T10:41:51.363Z,10.40
2023-02-17T10:44:23.396Z,10.40
2023-02-17T10:46:52.573Z,10.40
2023-02-17T10:49:34.682Z,10.40
2023-02-17T10:52:23.798Z,10.50
2023-02-17T10:54:54.156Z,10.60
2023-02-17T10:57:25.610Z,10.70
2023-02-17T10:59:54.252Z,10.80
2023-02-17T11:02:23.231Z,10.80
2023-02-17T11:04:55.042Z,10.80
2023-02-17T11:07:42.417Z,10.80
2023-02-17T11:10:34.064Z,10.90
2023-02-17T11:13:03.660Z,10.90
2023-02-17T11:15:44.754Z,11.00
2023-02-17T11:18:20.433Z,11.10
2023-02-17T11:20:48.125Z,11.20
2023-02-17T11:23:15.771Z,11.20
2023-02-17T11:25:54.976Z,11.40
2023-02-17T11:28:26.650Z,11.30
2023-02-17T11:30:58.023Z,11.40
2023-02-17T11:33:39.072Z,11.60
2023-02-17T11:36:10.763Z,11.60
2023-02-17T11:38:42.957Z,11.60
2023-02-17T11:41:11.288Z,11.60
2023-02-17T11:43:40.058Z,11.70
2023-02-17T11:46:36.615Z,11.80
2023-02-17T11:49:29.679Z,11.80
2023-02-17T11:52:12.347Z,11.90
2023-02-17T11:54:58.298Z,11.90
2023-02-17T11:57:45.309Z,12.00
2023-02-17T12:00:23.503Z,12.20
2023-02-17T12:03:30.087Z,12.20
2023-02-17T12:06:26.458Z,12.20
2023-02-17T12:09:13.330Z,12.30
2023-02-17T12:11:49.983Z,12.50
2023-02-17T12:14:41.008Z,12.50
2023-02-17T12:17:18.794Z,12.50
2023-02-17T12:19:57.786Z,12.60
2023-02-17T12:22:36.033Z,12.80
2023-02-17T12:25:31.037Z,12.80
2023-02-17T12:28:17.083Z,12.90
2023-02-17T12:30:47.439Z,13.00
2023-02-17T12:33:36.658Z,13.00
2023-02-17T12:36:11.304Z,13.10
2023-02-17T12:38:52.317Z,13.20
2023-02-17T12:41:28.542Z,13.20
2023-02-17T12:44:00.803Z,13.20
2023-02-17T12:46:46.450Z,13.40
2023-02-17T12:49:27.565Z,13.50
2023-02-17T12:52:00.519Z,13.60
2023-02-17T12:54:34.383Z,13.60
2023-02-17T12:57:10.851Z,13.70
2023-02-17T12:59:40.667Z,13.90
2023-02-17T13:02:20.995Z,14.00
2023-02-17T13:04:51.779Z,14.20
2023-02-17T13:07:45.634Z,14.50
2023-02-17T13:10:40.636Z,14.80
2023-02-17T13:13:14.351Z,15.80
2023-02-17T13:15:44.794Z,17.10
2023-02-17T13:18:27.041Z,18.70
2023-02-17T13:21:20.629Z,20.00
2023-02-17T13:24:30.664Z,21.10
2023-02-17T13:27:08.876Z,21.00
2023-02-17T13:29:36.736Z,20.70
2023-02-17T13:32:13.051Z,21.70
2023-02-17T13:34:43.501Z,22.30
2023-02-17T13:37:32.424Z,22.80
2023-02-17T13:40:01.872Z,23.60
2023-02-17T13:42:38.042Z,24.50
2023-02-17T13:45:17.029Z,24.10
2023-02-17T13:47:46.886Z,23.40
2023-02-17T13:50:32.677Z,23.10
2023-02-17T13:53:01.445Z,24.20
2023-02-17T13:55:28.788Z,24.10
2023-02-17T13:58:01.127Z,25.10
2023-02-17T14:00:32.757Z,25.50
2023-02-17T14:03:39.326Z,24.50
2023-02-17T14:06:11.237Z,23.10
2023-02-17T14:08:40.884Z,23.10
2023-02-17T14:11:12.911Z,23.10
2023-02-17T14:13:45.214Z,22.60
2023-02-17T14:16:35.411Z,22.40
2023-02-17T14:19:18.245Z,22.60
2023-02-17T14:22:01.471Z,22.80
2023-02-17T14:24:35.381Z,22.40
2023-02-17T14:27:14.238Z,22.00
2023-02-17T14:29:43.043Z,22.40
2023-02-17T14:32:32.079Z,23.30
2023-02-17T14:35:10.969Z,22.90
2023-02-17T14:37:40.110Z,22.90
2023-02-17T14:40:17.092Z,22.60
2023-02-17T14:42:45.746Z,20.70
2023-02-17T14:45:15.383Z,20.50
2023-02-17T14:47:43.255Z,20.70
2023-02-17T14:50:11.242Z,20.30
2023-02-17T14:52:53.082Z,20.30
2023-02-17T14:55:35.186Z,19.80
2023-02-17T14:58:02.833Z,19.00
2023-02-17T15:00:30.476Z,18.90
2023-02-17T15:02:57.880Z,18.50
2023-02-17T15:05:25.533Z,17.90
2023-02-17T15:07:52.709Z,17.70
2023-02-17T15:10:28.478Z,17.50
2023-02-17T15:12:57.114Z,17.40
2023-02-17T15:15:24.356Z,17.20
2023-02-17T15:17:51.641Z,17.20
2023-02-17T15:20:19.101Z,17.00
2023-02-17T15:22:47.027Z,16.90
2023-02-17T15:25:24.113Z,16.80
2023-02-17T15:27:51.696Z,16.90
2023-02-17T15:30:20.771Z,16.90
2023-02-17T15:32:48.547Z,16.80
2023-02-17T15:35:20.775Z,16.70
2023-02-17T15:37:48.777Z,16.70
2023-02-17T15:40:22.129Z,16.70
2023-02-17T15:43:03.618Z,16.60
2023-02-17T15:45:31.453Z,16.50
2023-02-17T15:48:07.244Z,16.50
2023-02-17T15:50:34.556Z,16.50
2023-02-17T15:53:01.897Z,16.40
2023-02-17T15:55:29.456Z,16.40
2023-02-17T15:57:59.443Z,16.10
2023-02-17T16:00:29.694Z,16.00
2023-02-17T16:02:57.170Z,15.90
2023-02-17T16:05:27.300Z,15.70
2023-02-17T16:07:55.215Z,15.40
2023-02-17T16:10:29.742Z,15.20
2023-02-17T16:12:58.120Z,15.10
2023-02-17T16:15:26.784Z,14.90
2023-02-17T16:17:55.773Z,14.80
2023-02-17T16:20:29.559Z,14.70
2023-02-17T16:22:56.933Z,14.60
2023-02-17T16:25:24.567Z,14.60
2023-02-17T16:27:52.874Z,14.50
2023-02-17T16:30:35.941Z,14.40
2023-02-17T16:33:03.858Z,14.30
2023-02-17T16:35:32.816Z,14.30
2023-02-17T16:38:13.799Z,14.20
2023-02-17T16:40:47.410Z,14.20
2023-02-17T16:43:23.378Z,14.10
2023-02-17T16:45:59.877Z,14.00
2023-02-17T16:48:30.896Z,13.90
2023-02-17T16:50:58.354Z,13.90
2023-02-17T16:53:26.004Z,13.80
2023-02-17T16:55:55.310Z,13.70
2023-02-17T16:58:25.162Z,13.70
2023-02-17T17:00:54.577Z,13.70
2023-02-17T17:03:22.747Z,13.60
2023-02-17T17:05:52.441Z,13.60
2023-02-17T17:08:21.764Z,13.60
2023-02-17T17:10:49.659Z,13.60
2023-02-17T17:13:17.102Z,13.60
2023-02-17T17:15:45.897Z,13.50
2023-02-17T17:18:21.105Z,13.50
2023-02-17T17:20:49.195Z,13.50
2023-02-17T17:23:16.961Z,13.50
2023-02-17T17:25:47.018Z,13.50
2023-02-17T17:28:22.510Z,13.50
2023-02-17T17:30:49.918Z,13.40
2023-02-17T17:33:17.354Z,13.40
2023-02-17T17:35:44.636Z,13.40
2023-02-17T17:38:16.501Z,13.40
2023-02-17T17:40:53.436Z,13.30
2023-02-17T17:43:22.384Z,13.30
2023-02-17T17:45:50.837Z,13.20
2023-02-17T17:48:18.690Z,13.20
2023-02-17T17:50:46.593Z,13.20
2023-02-17T17:53:13.986Z,13.20
2023-02-17T17:55:41.188Z,13.20
2023-02-17T17:58:08.498Z,13.20
2023-02-17T18:00:35.732Z,13.20
2023-02-17T18:03:03.917Z,13.20
2023-02-17T18:05:31.294Z,13.20
2023-02-17T18:07:58.569Z,13.10
2023-02-17T18:10:25.945Z,13.10
2023-02-17T18:12:53.395Z,13.00
2023-02-17T18:15:21.227Z,13.00
2023-02-17T18:17:49.484Z,13.00
2023-02-17T18:20:17.078Z,12.90
2023-02-17T18:22:44.578Z,13.00
2023-02-17T18:25:12.129Z,13.00
2023-02-17T18:27:46.076Z,12.90
2023-02-17T18:30:17.436Z,12.90
2023-02-17T18:32:45.103Z,12.90
2023-02-17T18:35:13.077Z,12.90
2023-02-17T18:37:41.194Z,12.80
2023-02-17T18:40:13.807Z,12.80
2023-02-17T18:42:42.581Z,12.70
2023-02-17T18:45:10.498Z,12.60
2023-02-17T18:47:38.262Z,12.50
2023-02-17T18:50:08.324Z,12.50
2023-02-17T18:52:38.318Z,12.40
2023-02-17T18:55:06.793Z,12.40
2023-02-17T18:57:34.827Z,12.30
2023-02-17T19:00:02.447Z,12.30
2023-02-17T19:02:31.017Z,12.30
2023-02-17T19:04:58.373Z,12.30
2023-02-17T19:07:25.583Z,12.30
2023-02-17T19:09:54.555Z,12.20
2023-02-17T19:12:22.313Z,12.10
2023-02-17T19:14:53.261Z,12.10
2023-02-17T19:17:20.831Z,12.10
2023-02-17T19:19:48.473Z,12.10
2023-02-17T19:22:15.705Z,12.10
2023-02-17T19:24:43.638Z,12.20
2023-02-17T19:27:11.184Z,12.00
2023-02-17T19:29:38.409Z,11.90
2023-02-17T19:32:05.736Z,11.80
2023-02-17T19:34:32.985Z,11.80
2023-02-17T19:37:00.478Z,11.70
2023-02-17T19:39:27.767Z,11.70
2023-02-17T19:41:54.952Z,11.60
2023-02-17T19:44:22.932Z,11.70
2023-02-17T19:46:50.265Z,11.70
2023-02-17T19:49:17.513Z,11.60
2023-02-17T19:51:45.816Z,11.60
2023-02-17T19:54:13.063Z,11.50
2023-02-17T19:56:40.622Z,11.50
2023-02-17T19:59:08.308Z,11.60
2023-02-17T20:01:35.612Z,11.60
2023-02-17T20:04:05.035Z,11.50
2023-02-17T20:06:40.438Z,11.50
2023-02-17T20:09:11.220Z,11.50
2023-02-17T20:11:38.800Z,11.40
2023-02-17T20:14:06.422Z,11.40
2023-02-17T20:16:36.766Z,11.40
2023-02-17T20:19:05.619Z,11.40
2023-02-17T20:21:38.407Z,11.30
2023-02-17T20:24:06.768Z,11.30
2023-02-17T20:26:39.114Z,11.20
2023-02-17T20:29:06.660Z,11.20
2023-02-17T20:31:35.932Z,11.10
2023-02-17T20:34:05.509Z,11.10
2023-02-17T20:36:32.947Z,11.10
2023-02-17T20:39:00.454Z,11.10
2023-02-17T20:41:27.806Z,11.10
2023-02-17T20:43:55.004Z,11.30
2023-02-17T20:46:28.301Z,11.30
2023-02-17T20:48:56.404Z,11.30
2023-02-17T20:51:24.380Z,11.30
2023-02-17T20:53:52.222Z,11.20
2023-02-17T20:56:22.532Z,11.10
2023-02-17T20:58:51.865Z,11.10
2023-02-17T21:01:20.082Z,11.00
2023-02-17T21:03:47.288Z,11.00
2023-02-17T21:06:26.664Z,11.00
2023-02-17T21:09:03.419Z,11.00
2023-02-17T21:11:30.886Z,11.00
2023-02-17T21:13:58.045Z,11.00
2023-02-17T21:16:31.191Z,11.00
2023-02-17T21:19:00.042Z,10.90
2023-02-17T21:21:27.993Z,10.90
2023-02-17T21:23:56.308Z,10.80
2023-02-17T21:26:25.354Z,10.80
2023-02-17T21:28:52.644Z,10.80
2023-02-17T21:31:20.735Z,10.70
2023-02-17T21:33:48.239Z,10.70
2023-02-17T21:36:18.081Z,10.70
2023-02-17T21:38:46.589Z,10.70
2023-02-17T21:41:20.219Z,10.70
2023-02-17T21:44:06.677Z,10.60
2023-02-17T21:46:34.797Z,10.70
2023-02-17T21:49:02.326Z,10.70
2023-02-17T21:51:30.211Z,10.60
2023-02-17T21:53:59.294Z,10.60
2023-02-17T21:56:26.713Z,10.60
2023-02-17T21:58:56.529Z,10.50
2023-02-17T22:01:26.603Z,10.60
2023-02-17T22:03:54.852Z,10.50
2023-02-17T22:06:24.270Z,10.40
2023-02-17T22:08:51.867Z,10.30
2023-02-17T22:11:25.145Z,10.20
2023-02-17T22:13:58.337Z,10.20
2023-02-17T22:16:26.344Z,10.20
2023-02-17T22:18:53.534Z,10.10
2023-02-17T22:21:20.818Z,10.10
2023-02-17T22:23:48.184Z,10.00
2023-02-17T22:26:18.454Z,10.10
2023-02-17T22:28:46.029Z,10.10
2023-02-17T22:31:15.068Z,10.10
2023-02-17T22:33:43.090Z,10.10
2023-02-17T22:36:12.926Z,10.10
2023-02-17T22:38:44.114Z,10.10
2023-02-17T22:41:13.659Z,10.10
2023-02-17T22:43:42.412Z,10.10
2023-02-17T22:46:11.334Z,10.10
2023-02-17T22:48:39.322Z,10.10
2023-02-17T22:51:12.967Z,10.20
2023-02-17T22:53:40.581Z,10.20
2023-02-17T22:56:09.038Z,10.30
2023-02-17T22:58:37.035Z,10.30
2023-02-17T23:01:20.646Z,10.30
2023-02-17T23:03:52.383Z,10.40
2023-02-17T23:06:27.348Z,10.40
2023-02-17T23:08:55.530Z,10.40
2023-02-17T23:11:47.868Z,10.40
2023-02-17T23:14:18.046Z,10.40
2023-02-17T23:16:45.886Z,10.50
2023-02-17T23:19:15.980Z,10.50
2023-02-17T23:21:49.357Z,10.50
2023-02-17T23:24:18.159Z,10.50
2023-02-17T23:26:45.900Z,10.50
2023-02-17T23:29:13.481Z,10.50
2023-02-17T23:31:40.753Z,10.60
2023-02-17T23:34:08.433Z,10.60
2023-02-17T23:36:37.964Z,10.70
2023-02-17T23:39:05.205Z,10.70
2023-02-17T23:41:32.753Z,10.70
2023-02-17T23:43:59.984Z,10.70
2023-02-17T23:46:28.921Z,10.70
2023-02-17T23:48:56.613Z,10.80
2023-02-17T23:51:23.917Z,10.80
2023-02-17T23:53:51.233Z,10.80
2023-02-17T23:56:38.625Z,10.90
2023-02-17T23:59:06.176Z,10.90
